createdAt,value
2023-01-04T00:01:08.513Z,101710.97
2023-01-04T00:03:35.377Z,101704.56
2023-01-04T00:06:05.310Z,101710.09
2023-01-04T00:08:32.739Z,101710.97
2023-01-04T00:11:04.538Z,101700.38
2023-01-04T00:13:32.069Z,101707.63
2023-01-04T00:16:07.892Z,101685.78
2023-01-04T00:18:36.849Z,101688.09
2023-01-04T00:21:12.423Z,101683.69
2023-01-04T00:23:40.907Z,101679.97
2023-01-04T00:26:12.442Z,101681.56
2023-01-04T00:28:39.819Z,101674.75
2023-01-04T00:31:08.511Z,101674.31
2023-01-04T00:33:35.055Z,101671.81
2023-01-04T00:36:07.357Z,101668.97
2023-01-04T00:38:35.198Z,101640.28
2023-01-04T00:41:02.169Z,101644.66
2023-01-04T00:43:28.938Z,101638.09
2023-01-04T00:45:55.911Z,101639.72
2023-01-04T00:48:23.127Z,101624.72
2023-01-04T00:50:50.204Z,101609.34
2023-01-04T00:53:18.331Z,101608.03
2023-01-04T00:55:45.575Z,101606.44
2023-01-04T00:58:12.575Z,101607.25
2023-01-04T01:00:39.593Z,101603.16
2023-01-04T01:03:06.560Z,101585.69
2023-01-04T01:05:35.416Z,101581.69
2023-01-04T01:08:24.577Z,101579.22
2023-01-04T01:10:51.847Z,101567.84
2023-01-04T01:13:19.283Z,101561.38
2023-01-04T01:15:46.013Z,101553.75
2023-01-04T01:18:12.631Z,101560.47
2023-01-04T01:20:44.835Z,101548.31
2023-01-04T01:23:15.397Z,101539.09
2023-01-04T01:25:42.656Z,101533.78
2023-01-04T01:28:10.160Z,101532.53
2023-01-04T01:30:41.745Z,101531.38
2023-01-04T01:33:09.949Z,101538.56
2023-01-04T01:35:36.827Z,101526.41
2023-01-04T01:38:03.732Z,101536.97
2023-01-04T01:40:30.318Z,101521.63
2023-01-04T01:42:56.746Z,101528.44
2023-01-04T01:45:41.678Z,101514.25
2023-01-04T01:48:15.224Z,101510.97
2023-01-04T01:50:52.212Z,101506.28
2023-01-04T01:53:19.603Z,101503.69
2023-01-04T01:55:49.252Z,101498.00
2023-01-04T01:58:24.847Z,101494.03
2023-01-04T02:00:51.382Z,101502.47
2023-01-04T02:03:24.027Z,101483.03
2023-01-04T02:05:53.545Z,101487.09
2023-01-04T02:08:22.699Z,101483.03
2023-01-04T02:10:49.827Z,101480.19
2023-01-04T02:13:20.216Z,101465.53
2023-01-04T02:15:55.626Z,101459.88
2023-01-04T02:18:30.798Z,101448.50
2023-01-04T02:21:05.291Z,101447.81
2023-01-04T02:24:10.178Z,101415.41
2023-01-04T02:26:59.096Z,101417.03
2023-01-04T02:29:39.631Z,101411.78
2023-01-04T02:32:14.704Z,101412.03
2023-01-04T02:35:14.485Z,101391.09
2023-01-04T02:37:56.365Z,101382.13
2023-01-04T02:40:33.042Z,101386.94
2023-01-04T02:43:42.676Z,101376.34
2023-01-04T02:46:15.942Z,101376.34
2023-01-04T02:49:01.087Z,101359.69
2023-01-04T02:51:30.942Z,101364.13
2023-01-04T02:54:18.187Z,101355.25
2023-01-04T02:56:56.344Z,101349.91
2023-01-04T02:59:47.835Z,101338.22
2023-01-04T03:02:36.215Z,101334.13
2023-01-04T03:05:51.349Z,101319.69
2023-01-04T03:08:46.788Z,101300.97
2023-01-04T03:11:33.827Z,101312.66
2023-01-04T03:14:32.228Z,101278.25
2023-01-04T03:17:02.243Z,101286.44
2023-01-04T03:19:49.941Z,101275.50
2023-01-04T03:22:38.852Z,101259.63
2023-01-04T03:25:27.236Z,101267.69
2023-01-04T03:28:14.136Z,101234.97
2023-01-04T03:31:10.632Z,101234.78
2023-01-04T03:33:56.343Z,101218.97
2023-01-04T03:36:43.264Z,101218.97
2023-01-04T03:39:48.515Z,101201.94
2023-01-04T03:42:47.556Z,101195.03
2023-01-04T03:45:35.553Z,101184.00
2023-01-04T03:48:33.318Z,101198.19
2023-01-04T03:51:31.899Z,101180.81
2023-01-04T03:54:17.794Z,101168.56
2023-01-04T03:56:45.445Z,101133.00
2023-01-04T03:59:12.991Z,101141.97
2023-01-04T04:01:42.896Z,101153.91
2023-01-04T04:04:28.893Z,101133.47
2023-01-04T04:07:13.857Z,101143.69
2023-01-04T04:09:40.347Z,101116.00
2023-01-04T04:12:07.022Z,101125.63
2023-01-04T04:14:33.556Z,101105.88
2023-01-04T04:17:00.179Z,101096.00
2023-01-04T04:19:26.704Z,101091.09
2023-01-04T04:21:53.189Z,101104.84
2023-01-04T04:24:23.035Z,101084.19
2023-01-04T04:26:49.966Z,101080.44
2023-01-04T04:29:16.753Z,101078.84
2023-01-04T04:31:43.423Z,101078.72
2023-01-04T04:34:10.648Z,101066.56
2023-01-04T04:36:37.111Z,101064.06
2023-01-04T04:39:04.017Z,101053.63
2023-01-04T04:41:39.649Z,101055.91
2023-01-04T04:44:08.919Z,101042.59
2023-01-04T04:46:35.771Z,101048.50
2023-01-04T04:49:03.288Z,101029.53
2023-01-04T04:51:29.740Z,101018.63
2023-01-04T04:53:56.297Z,101039.53
2023-01-04T04:56:22.719Z,101020.47
2023-01-04T04:58:49.786Z,101015.22
2023-01-04T05:01:16.971Z,101018.72
2023-01-04T05:03:43.699Z,101002.28
2023-01-04T05:06:10.736Z,101006.91
2023-01-04T05:08:37.286Z,101004.84
2023-01-04T05:11:08.311Z,100988.41
2023-01-04T05:13:35.657Z,100960.22
2023-01-04T05:16:03.258Z,100978.06
2023-01-04T05:18:29.889Z,100947.72
2023-01-04T05:20:56.396Z,100944.56
2023-01-04T05:23:23.134Z,100938.59
2023-01-04T05:25:56.507Z,100926.47
2023-01-04T05:28:22.935Z,100915.88
2023-01-04T05:30:56.004Z,100915.88
2023-01-04T05:33:24.206Z,100915.78
2023-01-04T05:35:51.299Z,100891.47
2023-01-04T05:38:18.756Z,100903.97
2023-01-04T05:40:45.551Z,100911.22
2023-01-04T05:43:13.872Z,100897.91
2023-01-04T05:45:43.235Z,100891.66
2023-01-04T05:48:10.212Z,100874.28
2023-01-04T05:50:36.658Z,100881.88
2023-01-04T05:53:09.818Z,100874.59
2023-01-04T05:55:36.280Z,100860.28
2023-01-04T05:58:02.838Z,100831.06
2023-01-04T06:00:29.273Z,100833.44
2023-01-04T06:02:56.992Z,100818.91
2023-01-04T06:05:24.497Z,100835.81
2023-01-04T06:07:51.506Z,100825.59
2023-01-04T06:10:18.509Z,100825.13
2023-01-04T06:12:46.696Z,100804.09
2023-01-04T06:15:13.531Z,100807.28
2023-01-04T06:17:40.621Z,100801.25
2023-01-04T06:20:09.519Z,100806.34
2023-01-04T06:22:36.901Z,100787.72
2023-01-04T06:25:04.109Z,100794.50
2023-01-04T06:27:30.697Z,100794.88
2023-01-04T06:29:57.310Z,100782.69
2023-01-04T06:32:23.826Z,100793.13
2023-01-04T06:34:50.485Z,100768.00
2023-01-04T06:37:17.026Z,100776.53
2023-01-04T06:39:43.481Z,100771.53
2023-01-04T06:42:30.042Z,100760.63
2023-01-04T06:44:56.472Z,100745.75
2023-01-04T06:47:22.913Z,100755.09
2023-01-04T06:49:49.335Z,100753.84
2023-01-04T06:52:15.800Z,100752.94
2023-01-04T06:54:42.203Z,100751.22
2023-01-04T06:57:08.674Z,100744.09
2023-01-04T06:59:35.113Z,100742.22
2023-01-04T07:02:01.618Z,100736.53
2023-01-04T07:04:28.068Z,100738.41
2023-01-04T07:06:54.670Z,100727.53
2023-01-04T07:09:21.179Z,100723.09
2023-01-04T07:11:47.606Z,100719.47
2023-01-04T07:14:14.034Z,100721.72
2023-01-04T07:16:40.550Z,100722.03
2023-01-04T07:19:08.903Z,100709.06
2023-01-04T07:21:35.343Z,100706.38
2023-01-04T07:24:01.800Z,100706.88
2023-01-04T07:26:28.257Z,100707.66
2023-01-04T07:29:12.925Z,100708.78
2023-01-04T07:31:39.436Z,100700.25
2023-01-04T07:34:06.547Z,100688.41
2023-01-04T07:36:32.994Z,100685.09
2023-01-04T07:39:00.473Z,100688.72
2023-01-04T07:41:27.192Z,100694.25
2023-01-04T07:43:53.868Z,100685.72
2023-01-04T07:46:22.043Z,100678.00
2023-01-04T07:48:48.676Z,100684.78
2023-01-04T07:51:15.904Z,100677.84
2023-01-04T07:53:42.342Z,100674.09
2023-01-04T07:56:11.350Z,100665.56
2023-01-04T07:58:42.155Z,100668.72
2023-01-04T08:01:14.391Z,100659.06
2023-01-04T08:03:40.974Z,100654.81
2023-01-04T08:06:10.576Z,100657.19
2023-01-04T08:08:37.879Z,100663.22
2023-01-04T08:11:07.163Z,100652.63
2023-01-04T08:13:33.865Z,100646.63
2023-01-04T08:16:00.404Z,100650.09
2023-01-04T08:18:26.997Z,100646.78
2023-01-04T08:21:09.093Z,100654.53
2023-01-04T08:23:36.963Z,100653.59
2023-01-04T08:26:08.980Z,100647.56
2023-01-04T08:28:36.084Z,100652.66
2023-01-04T08:31:08.272Z,100660.72
2023-01-04T08:33:37.311Z,100651.72
2023-01-04T08:36:24.396Z,100654.88
2023-01-04T08:38:59.742Z,100647.59
2023-01-04T08:44:13.950Z,100646.00
2023-01-04T08:46:40.418Z,100640.00
2023-01-04T08:49:06.958Z,100647.91
2023-01-04T08:51:34.114Z,100634.97
2023-01-04T08:54:00.545Z,100633.84
2023-01-04T08:56:26.969Z,100618.03
2023-01-04T08:58:53.490Z,100623.91
2023-01-04T09:01:20.058Z,100608.88
2023-01-04T09:03:46.720Z,100589.75
2023-01-04T09:06:15.349Z,100610.13
2023-01-04T09:08:42.987Z,100608.09
2023-01-04T09:11:14.442Z,100605.53
2023-01-04T09:13:41.417Z,100615.34
2023-01-04T09:16:13.721Z,100617.09
2023-01-04T09:18:40.712Z,100617.41
2023-01-04T09:21:16.573Z,100614.38
2023-01-04T09:23:44.338Z,100606.63
2023-01-04T09:26:21.744Z,100585.13
2023-01-04T09:28:49.686Z,100595.09
2023-01-04T09:31:19.086Z,100594.16
2023-01-04T09:36:32.877Z,100600.13
2023-01-04T09:38:59.291Z,100601.56
2023-01-04T09:41:28.681Z,100601.09
2023-01-04T09:44:03.177Z,100607.88
2023-01-04T09:46:39.519Z,100596.00
2023-01-04T09:49:15.143Z,100599.97
2023-01-04T09:51:45.661Z,100586.03
2023-01-04T09:54:17.103Z,100599.78
2023-01-04T09:56:50.848Z,100590.28
2023-01-04T09:59:25.696Z,100591.41
2023-01-04T10:01:58.022Z,100587.09
2023-01-04T10:04:43.021Z,100575.69
2023-01-04T10:07:17.047Z,100564.94
2023-01-04T10:09:43.727Z,100570.16
2023-01-04T10:12:23.062Z,100563.69
2023-01-04T10:15:06.968Z,100562.72
2023-01-04T10:18:57.603Z,100558.41
2023-01-04T10:21:29.504Z,100558.72
2023-01-04T10:23:57.270Z,100563.47
2023-01-04T10:26:35.877Z,100544.59
2023-01-04T10:29:19.589Z,100549.34
2023-01-04T10:31:51.320Z,100552.47
2023-01-04T10:34:26.295Z,100543.44
2023-01-04T10:36:59.069Z,100536.78
2023-01-04T10:39:32.758Z,100529.34
2023-01-04T10:42:10.049Z,100532.50
2023-01-04T10:44:42.687Z,100528.38
2023-01-04T10:47:35.923Z,100532.78
2023-01-04T10:50:11.247Z,100522.00
2023-01-04T10:52:47.603Z,100518.69
2023-01-04T10:55:27.272Z,100512.50
2023-01-04T10:57:54.397Z,100505.03
2023-01-04T11:00:29.883Z,100496.00
2023-01-04T11:03:18.572Z,100497.56
2023-01-04T11:05:58.177Z,100497.38
2023-01-04T11:08:29.144Z,100482.06
2023-01-04T11:11:09.463Z,100484.53
2023-01-04T11:13:36.001Z,100477.28
2023-01-04T11:16:05.223Z,100476.28
2023-01-04T11:18:36.393Z,100482.28
2023-01-04T11:21:08.843Z,100468.63
2023-01-04T11:23:35.265Z,100464.81
2023-01-04T11:26:13.216Z,100455.75
2023-01-04T11:28:56.659Z,100454.50
2023-01-04T11:31:48.038Z,100454.78
2023-01-04T11:34:14.505Z,100461.28
2023-01-04T11:36:47.444Z,100453.31
2023-01-04T11:39:23.295Z,100463.47
2023-01-04T11:42:04.723Z,100463.75
2023-01-04T11:44:35.865Z,100446.34
2023-01-04T11:47:18.000Z,100455.00
2023-01-04T11:49:44.436Z,100464.69
2023-01-04T11:52:33.092Z,100451.22
2023-01-04T11:55:31.288Z,100447.88
2023-01-04T11:58:08.032Z,100451.50
2023-01-04T12:00:34.850Z,100445.63
2023-01-04T12:03:15.480Z,100453.66
2023-01-04T12:05:42.034Z,100439.72
2023-01-04T12:08:22.841Z,100438.63
2023-01-04T12:10:49.420Z,100433.81
2023-01-04T12:13:16.361Z,100438.25
2023-01-04T12:15:55.227Z,100428.41
2023-01-04T12:18:42.560Z,100421.91
2023-01-04T12:21:23.600Z,100415.72
2023-01-04T12:23:51.733Z,100430.28
2023-01-04T12:26:19.442Z,100410.59
2023-01-04T12:28:48.669Z,100413.75
2023-01-04T12:31:27.086Z,100403.34
2023-01-04T12:33:58.869Z,100403.41
2023-01-04T12:36:37.551Z,100418.50
2023-01-04T12:39:13.839Z,100405.78
2023-01-04T12:41:40.164Z,100396.25
2023-01-04T12:44:43.038Z,100387.69
2023-01-04T12:47:37.224Z,100382.25
2023-01-04T12:50:10.977Z,100385.31
2023-01-04T12:53:30.782Z,100389.75
2023-01-04T12:55:57.784Z,100392.88
2023-01-04T13:01:28.699Z,100380.28
2023-01-04T13:04:04.323Z,100379.03
2023-01-04T13:06:35.849Z,100370.66
2023-01-04T13:09:02.406Z,100374.09
2023-01-04T13:11:48.167Z,100378.53
2023-01-04T13:14:26.910Z,100359.63
2023-01-04T13:17:26.192Z,100366.91
2023-01-04T13:19:55.938Z,100370.84
2023-01-04T13:22:29.685Z,100351.94
2023-01-04T13:24:58.750Z,100369.06
2023-01-04T13:27:27.085Z,100372.22
2023-01-04T13:29:53.741Z,100363.16
2023-01-04T13:32:28.867Z,100345.53
2023-01-04T13:35:01.154Z,100358.03
2023-01-04T13:37:47.719Z,100345.03
2023-01-04T13:40:16.883Z,100350.53
2023-01-04T13:42:47.075Z,100337.81
2023-01-04T13:45:29.440Z,100330.84
2023-01-04T13:47:58.991Z,100324.63
2023-01-04T13:50:40.001Z,100336.56
2023-01-04T13:53:08.531Z,100334.28
2023-01-04T13:55:37.708Z,100333.00
2023-01-04T13:58:07.526Z,100323.94
2023-01-04T14:00:49.956Z,100308.59
2023-01-04T14:03:26.154Z,100305.03
2023-01-04T14:05:59.883Z,100300.09
2023-01-04T14:08:37.518Z,100296.75
2023-01-04T14:11:38.394Z,100287.69
2023-01-04T14:14:15.349Z,100279.13
2023-01-04T14:16:41.823Z,100289.25
2023-01-04T14:19:42.563Z,100292.91
2023-01-04T14:22:21.359Z,100294.47
2023-01-04T14:27:42.474Z,100282.06
2023-01-04T14:30:18.322Z,100292.69
2023-01-04T14:32:56.859Z,100285.69
2023-01-04T14:35:24.330Z,100276.63
2023-01-04T14:37:51.482Z,100276.91
2023-01-04T14:40:26.945Z,100274.81
2023-01-04T14:42:55.001Z,100245.50
2023-01-04T14:45:21.478Z,100248.13
2023-01-04T14:47:48.160Z,100250.44
2023-01-04T14:50:15.930Z,100264.75
2023-01-04T14:52:42.382Z,100254.91
2023-01-04T14:55:13.774Z,100263.75
2023-01-04T14:57:43.288Z,100272.34
2023-01-04T15:00:18.878Z,100260.63
2023-01-04T15:02:50.203Z,100253.66
2023-01-04T15:05:19.929Z,100274.97
2023-01-04T15:07:46.586Z,100260.19
2023-01-04T15:10:22.749Z,100271.84
2023-01-04T15:12:49.549Z,100276.06
2023-01-04T15:15:16.081Z,100281.47
2023-01-04T15:17:42.818Z,100271.63
2023-01-04T15:20:10.013Z,100272.97
2023-01-04T15:22:36.823Z,100265.22
2023-01-04T15:25:03.462Z,100269.13
2023-01-04T15:27:32.051Z,100258.19
2023-01-04T15:30:01.329Z,100247.34
2023-01-04T15:32:27.793Z,100254.59
2023-01-04T15:34:54.258Z,100251.47
2023-01-04T15:37:24.231Z,100248.88
2023-01-04T15:39:53.231Z,100260.63
2023-01-04T15:42:41.879Z,100247.13
2023-01-04T15:45:08.659Z,100249.47
2023-01-04T15:47:35.134Z,100261.69
2023-01-04T15:50:01.622Z,100246.13
2023-01-04T15:52:28.430Z,100247.88
2023-01-04T15:54:54.881Z,100256.78
2023-01-04T15:57:21.456Z,100245.63
2023-01-04T15:59:49.790Z,100246.63
2023-01-04T16:02:16.338Z,100260.19
2023-01-04T16:04:44.889Z,100255.75
2023-01-04T16:07:11.655Z,100258.91
2023-01-04T16:09:38.232Z,100241.63
2023-01-04T16:12:25.769Z,100263.25
2023-01-04T16:14:52.708Z,100262.03
2023-01-04T16:17:19.546Z,100257.09
2023-01-04T16:19:46.044Z,100252.19
2023-01-04T16:22:12.665Z,100233.44
2023-01-04T16:27:29.741Z,100243.88
2023-01-04T16:30:02.449Z,100227.16
2023-01-04T16:32:29.115Z,100239.44
2023-01-04T16:34:55.610Z,100236.81
2023-01-04T16:37:27.040Z,100238.44
2023-01-04T16:40:09.838Z,100232.19
2023-01-04T16:42:37.765Z,100245.72
2023-01-04T16:45:06.079Z,100238.44
2023-01-04T16:47:39.631Z,100231.44
2023-01-04T16:50:07.210Z,100222.09
2023-01-04T16:52:33.839Z,100248.59
2023-01-04T16:55:00.380Z,100230.44
2023-01-04T16:57:26.846Z,100214.56
2023-01-04T16:59:53.338Z,100235.16
2023-01-04T17:02:20.158Z,100246.59
2023-01-04T17:04:51.376Z,100236.69
2023-01-04T17:07:17.835Z,100243.72
2023-01-04T17:09:44.307Z,100223.41
2023-01-04T17:12:45.559Z,100225.50
2023-01-04T17:17:43.779Z,100235.16
2023-01-04T17:20:12.038Z,100229.44
2023-01-04T17:22:40.376Z,100225.00
2023-01-04T17:25:07.336Z,100211.72
2023-01-04T17:27:35.120Z,100222.41
2023-01-04T17:30:01.899Z,100220.03
2023-01-04T17:32:28.527Z,100236.44
2023-01-04T17:34:57.521Z,100232.72
2023-01-04T17:37:24.106Z,100238.28
2023-01-04T17:39:50.557Z,100236.38
2023-01-04T17:42:17.114Z,100218.16
2023-01-04T17:44:46.052Z,100229.44
2023-01-04T17:47:12.517Z,100213.19
2023-01-04T17:49:38.999Z,100224.44
2023-01-04T17:52:07.093Z,100223.41
2023-01-04T17:54:35.147Z,100223.16
2023-01-04T17:57:01.584Z,100239.88
2023-01-04T17:59:28.053Z,100226.28
2023-01-04T18:01:54.599Z,100226.84
2023-01-04T18:04:21.132Z,100231.28
2023-01-04T18:06:47.562Z,100229.97
2023-01-04T18:09:18.504Z,100228.44
2023-01-04T18:11:49.990Z,100220.34
2023-01-04T18:14:16.474Z,100218.56
2023-01-04T18:16:58.789Z,100203.72
2023-01-04T18:19:32.435Z,100207.59
2023-01-04T18:21:59.044Z,100205.47
2023-01-04T18:24:43.837Z,100221.91
2023-01-04T18:27:22.584Z,100224.25
2023-01-04T18:29:50.716Z,100219.84
2023-01-04T18:32:17.374Z,100216.16
2023-01-04T18:34:43.949Z,100230.22
2023-01-04T18:37:10.361Z,100231.00
2023-01-04T18:39:36.848Z,100228.44
2023-01-04T18:42:03.525Z,100221.13
2023-01-04T18:44:34.882Z,100208.47
2023-01-04T18:47:04.281Z,100218.56
2023-01-04T18:49:30.916Z,100215.19
2023-01-04T18:51:57.367Z,100223.00
2023-01-04T18:54:23.981Z,100228.19
2023-01-04T18:56:52.265Z,100220.41
2023-01-04T18:59:23.744Z,100216.00
2023-01-04T19:01:50.366Z,100211.06
2023-01-04T19:04:18.779Z,100204.56
2023-01-04T19:06:45.183Z,100205.34
2023-01-04T19:09:11.600Z,100200.13
2023-01-04T19:11:38.022Z,100196.50
2023-01-04T19:14:04.591Z,100191.28
2023-01-04T19:16:31.807Z,100198.34
2023-01-04T19:18:59.817Z,100195.19
2023-01-04T19:21:26.427Z,100198.84
2023-01-04T19:23:52.959Z,100192.81
2023-01-04T19:26:20.352Z,100201.91
2023-01-04T19:28:46.942Z,100201.69
2023-01-04T19:31:14.357Z,100204.56
2023-01-04T19:33:41.019Z,100200.41
2023-01-04T19:36:09.891Z,100193.13
2023-01-04T19:38:37.306Z,100171.28
2023-01-04T19:41:04.854Z,100196.25
2023-01-04T19:43:31.538Z,100197.53
2023-01-04T19:45:59.934Z,100188.97
2023-01-04T19:48:27.282Z,100177.69
2023-01-04T19:51:14.913Z,100187.41
2023-01-04T19:53:43.792Z,100203.75
2023-01-04T19:56:11.810Z,100201.13
2023-01-04T19:58:38.643Z,100198.53
2023-01-04T20:01:06.292Z,100203.75
2023-01-04T20:03:33.482Z,100203.25
2023-01-04T20:06:05.241Z,100206.09
2023-01-04T20:08:32.740Z,100211.81
2023-01-04T20:11:00.387Z,100208.97
2023-01-04T20:13:27.895Z,100214.69
2023-01-04T20:15:54.344Z,100198.84
2023-01-04T20:18:23.737Z,100193.13
2023-01-04T20:20:52.257Z,100201.69
2023-01-04T20:23:21.482Z,100223.00
2023-01-04T20:25:52.897Z,100234.16
2023-01-04T20:28:23.168Z,100245.59
2023-01-04T20:31:01.049Z,100233.84
2023-01-04T20:33:27.772Z,100226.59
2023-01-04T20:35:54.230Z,100214.06
2023-01-04T20:38:20.744Z,100230.44
2023-01-04T20:40:47.149Z,100238.22
2023-01-04T20:43:32.190Z,100244.47
2023-01-04T20:46:00.658Z,100219.75
2023-01-04T20:48:27.872Z,100230.88
2023-01-04T20:50:54.508Z,100218.66
2023-01-04T20:53:20.963Z,100225.63
2023-01-04T20:55:47.498Z,100236.03
2023-01-04T20:58:15.728Z,100231.31
2023-01-04T21:00:43.636Z,100228.97
2023-01-04T21:03:11.643Z,100221.19
2023-01-04T21:05:40.252Z,100203.75
2023-01-04T21:08:07.050Z,100199.03
2023-01-04T21:10:34.692Z,100216.19
2023-01-04T21:13:01.616Z,100232.56
2023-01-04T21:15:28.152Z,100217.47
2023-01-04T21:17:54.623Z,100212.47
2023-01-04T21:20:21.969Z,100213.78
2023-01-04T21:22:48.396Z,100219.28
2023-01-04T21:25:15.154Z,100219.19
2023-01-04T21:27:41.650Z,100228.84
2023-01-04T21:30:08.509Z,100224.91
2023-01-04T21:32:35.212Z,100228.06
2023-01-04T21:35:01.884Z,100220.50
2023-01-04T21:37:29.429Z,100218.91
2023-01-04T21:39:55.817Z,100206.63
2023-01-04T21:42:22.271Z,100209.78
2023-01-04T21:44:48.644Z,100201.44
2023-01-04T21:47:15.104Z,100208.22
2023-01-04T21:49:43.758Z,100220.91
2023-01-04T21:52:10.846Z,100215.22
2023-01-04T21:54:38.202Z,100216.50
2023-01-04T21:57:05.046Z,100215.72
2023-01-04T21:59:57.255Z,100208.13
2023-01-04T22:02:23.849Z,100218.50
2023-01-04T22:04:50.384Z,100207.59
2023-01-04T22:07:16.790Z,100208.63
2023-01-04T22:09:43.215Z,100216.94
2023-01-04T22:12:09.630Z,100212.81
2023-01-04T22:14:36.123Z,100218.50
2023-01-04T22:17:02.508Z,100229.94
2023-01-04T22:19:28.984Z,100214.84
2023-01-04T22:21:55.460Z,100231.22
2023-01-04T22:24:22.004Z,100235.66
2023-01-04T22:26:50.518Z,100231.22
2023-01-04T22:29:17.104Z,100234.84
2023-01-04T22:31:43.591Z,100217.16
2023-01-04T22:34:10.025Z,100231.44
2023-01-04T22:36:36.446Z,100226.78
2023-01-04T22:39:03.011Z,100233.28
2023-01-04T22:41:29.479Z,100232.50
2023-01-04T22:44:01.533Z,100226.00
2023-01-04T22:46:31.890Z,100237.41
2023-01-04T22:49:00.040Z,100235.06
2023-01-04T22:51:28.592Z,100251.69
2023-01-04T22:53:56.890Z,100248.06
2023-01-04T22:56:23.870Z,100240.78
2023-01-04T22:58:54.677Z,100250.66
2023-01-04T23:01:27.618Z,100252.19
2023-01-04T23:03:55.027Z,100248.47
2023-01-04T23:06:22.378Z,100258.69
2023-01-04T23:08:55.931Z,100246.50
2023-01-04T23:11:23.127Z,100257.63
2023-01-04T23:13:50.454Z,100258.13
2023-01-04T23:16:17.320Z,100259.22
2023-01-04T23:18:44.427Z,100261.25
2023-01-04T23:21:11.505Z,100264.13
2023-01-04T23:23:38.146Z,100271.13
2023-01-04T23:26:06.408Z,100272.69
2023-01-04T23:28:36.056Z,100260.72
2023-01-04T23:31:08.720Z,100258.91
2023-01-04T23:33:36.979Z,100271.91
2023-01-04T23:36:15.752Z,100275.25
2023-01-04T23:38:43.374Z,100276.03
2023-01-04T23:41:19.703Z,100276.53
2023-01-04T23:43:46.153Z,100261.75
2023-01-04T23:46:15.064Z,100273.19
2023-01-04T23:48:42.428Z,100266.69
2023-01-04T23:51:10.049Z,100274.50
2023-01-04T23:53:36.782Z,100271.63
2023-01-04T23:56:06.486Z,100278.41
2023-01-04T23:58:33.961Z,100273.41
